createdAt,value
2019-06-20T00:00:53.588Z,993.51
2019-06-20T00:01:53.580Z,993.58
2019-06-20T00:02:53.573Z,993.55
2019-06-20T00:03:53.565Z,993.55
2019-06-20T00:04:53.558Z,993.61
2019-06-20T00:05:53.551Z,993.61
2019-06-20T00:06:53.547Z,993.63
2019-06-20T00:07:53.534Z,993.64
2019-06-20T00:08:53.527Z,993.67
2019-06-20T00:09:53.519Z,993.70
2019-06-20T00:10:53.512Z,993.63
2019-06-20T00:11:53.508Z,993.68
2019-06-20T00:13:00.597Z,993.71
2019-06-20T00:13:53.490Z,993.71
2019-06-20T00:14:53.484Z,993.74
2019-06-20T00:15:53.476Z,993.70
2019-06-20T00:16:53.467Z,993.72
2019-06-20T00:17:53.459Z,993.77
2019-06-20T00:18:53.450Z,993.76
2019-06-20T00:19:53.444Z,993.80
2019-06-20T00:20:53.436Z,993.81
2019-06-20T00:21:53.427Z,993.83
2019-06-20T00:22:53.419Z,993.81
2019-06-20T00:23:53.411Z,993.82
2019-06-20T00:24:53.405Z,993.86
2019-06-20T00:25:53.396Z,993.85
2019-06-20T00:26:53.390Z,993.87
2019-06-20T00:27:53.382Z,993.89
2019-06-20T00:28:53.374Z,993.84
2019-06-20T00:29:53.369Z,993.83
2019-06-20T00:30:53.360Z,993.83
2019-06-20T00:31:53.349Z,993.81
2019-06-20T00:32:53.342Z,993.87
2019-06-20T00:33:53.347Z,993.79
2019-06-20T00:34:53.326Z,993.78
2019-06-20T00:35:53.318Z,993.75
2019-06-20T00:36:53.312Z,993.77
2019-06-20T00:37:53.304Z,993.76
2019-06-20T00:38:53.296Z,993.78
2019-06-20T00:39:53.287Z,993.81
2019-06-20T00:40:53.281Z,993.74
2019-06-20T00:41:53.274Z,993.77
2019-06-20T00:42:53.264Z,993.77
2019-06-20T00:43:53.259Z,993.80
2019-06-20T00:44:53.249Z,993.79
2019-06-20T00:45:53.245Z,993.79
2019-06-20T00:46:53.235Z,993.83
2019-06-20T00:47:53.226Z,993.84
2019-06-20T00:48:53.217Z,993.86
2019-06-20T00:49:53.211Z,993.87
2019-06-20T00:50:53.201Z,993.90
2019-06-20T00:51:53.203Z,993.89
2019-06-20T00:52:53.186Z,993.90
2019-06-20T00:53:53.189Z,993.96
2019-06-20T00:54:53.183Z,993.97
2019-06-20T00:55:53.166Z,993.95
2019-06-20T00:56:53.155Z,993.98
2019-06-20T00:57:53.147Z,994.00
2019-06-20T00:58:53.143Z,994.02
2019-06-20T00:59:53.133Z,994.05
2019-06-20T01:00:53.124Z,994.06
2019-06-20T01:01:53.119Z,994.07
2019-06-20T01:02:53.110Z,994.08
2019-06-20T01:03:53.102Z,994.05
2019-06-20T01:04:53.095Z,994.05
2019-06-20T01:05:53.085Z,994.04
2019-06-20T01:06:53.081Z,994.07
2019-06-20T01:07:53.071Z,994.08
2019-06-20T01:08:53.066Z,994.14
2019-06-20T01:09:53.055Z,994.15
2019-06-20T01:10:53.046Z,994.16
2019-06-20T01:11:53.040Z,994.16
2019-06-20T01:12:53.040Z,994.16
2019-06-20T01:13:53.097Z,994.13
2019-06-20T01:14:53.017Z,994.19
2019-06-20T01:15:53.022Z,994.15
2019-06-20T01:16:53.001Z,994.19
2019-06-20T01:17:52.997Z,994.23
2019-06-20T01:18:52.986Z,994.19
2019-06-20T01:19:52.978Z,994.25
2019-06-20T01:20:52.972Z,994.22
2019-06-20T01:21:52.966Z,994.25
2019-06-20T01:22:52.967Z,994.27
2019-06-20T01:23:52.948Z,994.29
2019-06-20T01:24:52.941Z,994.25
2019-06-20T01:25:52.934Z,994.26
2019-06-20T01:26:52.926Z,994.27
2019-06-20T01:27:52.918Z,994.35
2019-06-20T01:28:52.912Z,994.29
2019-06-20T01:29:52.904Z,994.31
2019-06-20T01:30:52.896Z,994.35
2019-06-20T01:31:52.888Z,994.34
2019-06-20T01:32:52.881Z,994.33
2019-06-20T01:33:52.874Z,994.30
2019-06-20T01:34:52.866Z,994.37
2019-06-20T01:35:52.859Z,994.35
2019-06-20T01:36:52.851Z,994.33
2019-06-20T01:37:52.844Z,994.33
2019-06-20T01:38:52.836Z,994.31
2019-06-20T01:39:52.893Z,994.31
2019-06-20T01:40:52.822Z,994.28
2019-06-20T01:41:52.816Z,994.33
2019-06-20T01:42:52.806Z,994.33
2019-06-20T01:43:52.800Z,994.38
2019-06-20T01:44:52.791Z,994.35
2019-06-20T01:45:52.784Z,994.35
2019-06-20T01:46:52.777Z,994.40
2019-06-20T01:47:52.776Z,994.41
2019-06-20T01:48:52.763Z,994.43
2019-06-20T01:49:52.754Z,994.46
2019-06-20T01:50:52.746Z,994.44
2019-06-20T01:51:52.740Z,994.48
2019-06-20T01:52:52.732Z,994.47
2019-06-20T01:53:52.724Z,994.47
2019-06-20T01:54:52.717Z,994.49
2019-06-20T01:55:52.710Z,994.49
2019-06-20T01:56:52.701Z,994.50
2019-06-20T01:57:52.693Z,994.51
2019-06-20T01:58:52.688Z,994.49
2019-06-20T01:59:52.680Z,994.49
2019-06-20T02:00:52.676Z,994.47
2019-06-20T02:01:52.672Z,994.53
2019-06-20T02:02:52.660Z,994.54
2019-06-20T02:03:52.649Z,994.52
2019-06-20T02:04:52.646Z,994.49
2019-06-20T02:05:52.636Z,994.50
2019-06-20T02:06:52.630Z,994.52
2019-06-20T02:07:52.619Z,994.50
2019-06-20T02:08:52.612Z,994.53
2019-06-20T02:09:52.608Z,994.53
2019-06-20T02:10:52.599Z,994.51
2019-06-20T02:11:52.589Z,994.55
2019-06-20T02:12:52.582Z,994.55
2019-06-20T02:14:06.386Z,994.52
2019-06-20T02:14:52.566Z,994.52
2019-06-20T02:15:52.559Z,994.54
2019-06-20T02:16:52.554Z,994.53
2019-06-20T02:17:52.547Z,994.54
2019-06-20T02:18:52.541Z,994.56
2019-06-20T02:19:52.530Z,994.56
2019-06-20T02:20:52.522Z,994.59
2019-06-20T02:21:52.546Z,994.62
2019-06-20T02:22:52.507Z,994.65
2019-06-20T02:23:52.500Z,994.65
2019-06-20T02:24:52.493Z,994.68
2019-06-20T02:25:52.485Z,994.68
2019-06-20T02:26:52.478Z,994.68
2019-06-20T02:27:52.519Z,994.72
2019-06-20T02:28:52.473Z,994.70
2019-06-20T02:29:52.456Z,994.73
2019-06-20T02:30:52.451Z,994.76
2019-06-20T02:31:52.457Z,994.75
2019-06-20T02:32:52.438Z,994.73
2019-06-20T02:33:52.427Z,994.74
2019-06-20T02:34:52.420Z,994.77
2019-06-20T02:35:52.414Z,994.78
2019-06-20T02:36:52.409Z,994.84
2019-06-20T02:37:52.399Z,994.79
2019-06-20T02:38:52.395Z,994.82
2019-06-20T02:39:52.384Z,994.80
2019-06-20T02:40:52.382Z,994.80
2019-06-20T02:41:52.369Z,994.82
2019-06-20T02:42:52.364Z,994.78
2019-06-20T02:43:52.355Z,994.77
2019-06-20T02:44:52.347Z,994.80
2019-06-20T02:45:52.341Z,994.84
2019-06-20T02:46:52.332Z,994.82
2019-06-20T02:47:52.327Z,994.86
2019-06-20T02:48:52.319Z,994.81
2019-06-20T02:49:52.311Z,994.82
2019-06-20T02:50:52.303Z,994.82
2019-06-20T02:51:52.295Z,994.83
2019-06-20T02:52:52.288Z,994.83
2019-06-20T02:53:52.289Z,994.91
2019-06-20T02:54:52.272Z,994.86
2019-06-20T02:55:52.265Z,994.90
2019-06-20T02:56:52.259Z,994.84
2019-06-20T02:57:52.253Z,994.83
2019-06-20T02:58:52.244Z,994.83
2019-06-20T02:59:52.236Z,994.82
2019-06-20T03:00:52.232Z,994.87
2019-06-20T03:01:52.223Z,994.88
2019-06-20T03:02:52.214Z,994.86
2019-06-20T03:03:52.208Z,994.87
2019-06-20T03:04:52.200Z,994.90
2019-06-20T03:05:52.193Z,994.91
2019-06-20T03:06:52.189Z,994.89
2019-06-20T03:07:52.180Z,994.90
2019-06-20T03:08:52.174Z,994.90
2019-06-20T03:09:52.171Z,994.91
2019-06-20T03:10:52.156Z,994.87
2019-06-20T03:11:52.214Z,994.90
2019-06-20T03:12:52.150Z,994.89
2019-06-20T03:13:52.133Z,994.93
2019-06-20T03:14:52.126Z,994.92
2019-06-20T03:15:52.118Z,994.89
2019-06-20T03:16:52.115Z,994.93
2019-06-20T03:17:52.104Z,994.91
2019-06-20T03:18:52.096Z,994.92
2019-06-20T03:19:52.089Z,994.91
2019-06-20T03:20:52.091Z,994.92
2019-06-20T03:21:52.105Z,994.94
2019-06-20T03:22:52.066Z,994.90
2019-06-20T03:23:52.066Z,994.92
2019-06-20T03:24:52.052Z,994.93
2019-06-20T03:25:52.046Z,994.95
2019-06-20T03:26:52.037Z,994.96
2019-06-20T03:27:52.031Z,994.99
2019-06-20T03:28:52.023Z,994.98
2019-06-20T03:29:52.019Z,994.98
2019-06-20T03:30:52.013Z,994.97
2019-06-20T03:31:52.002Z,994.97
2019-06-20T03:32:51.995Z,994.96
2019-06-20T03:33:51.986Z,995.00
2019-06-20T03:34:51.980Z,994.97
2019-06-20T03:35:51.970Z,994.96
2019-06-20T03:36:51.962Z,994.99
2019-06-20T03:37:51.957Z,995.01
2019-06-20T03:38:51.947Z,995.03
2019-06-20T03:39:51.951Z,995.06
2019-06-20T03:40:51.933Z,995.11
2019-06-20T03:41:51.925Z,995.06
2019-06-20T03:42:51.918Z,995.14
2019-06-20T03:43:51.911Z,995.09
2019-06-20T03:45:01.692Z,995.08
2019-06-20T03:45:51.894Z,995.12
2019-06-20T03:46:51.886Z,995.07
2019-06-20T03:47:51.883Z,995.10
2019-06-20T03:48:51.871Z,995.09
2019-06-20T03:49:51.864Z,995.14
2019-06-20T03:50:51.863Z,995.13
2019-06-20T03:51:51.875Z,995.16
2019-06-20T03:52:51.841Z,995.16
2019-06-20T03:53:51.836Z,995.19
2019-06-20T03:54:51.825Z,995.21
2019-06-20T03:55:51.818Z,995.20
2019-06-20T03:56:51.810Z,995.23
2019-06-20T03:57:51.804Z,995.22
2019-06-20T03:58:51.794Z,995.22
2019-06-20T03:59:51.787Z,995.23
2019-06-20T04:00:51.781Z,995.25
2019-06-20T04:01:51.774Z,995.26
2019-06-20T04:02:51.766Z,995.20
2019-06-20T04:03:51.756Z,995.27
2019-06-20T04:04:51.753Z,995.28
2019-06-20T04:05:51.742Z,995.28
2019-06-20T04:06:51.746Z,995.28
2019-06-20T04:07:51.729Z,995.29
2019-06-20T04:08:51.718Z,995.34
2019-06-20T04:09:51.711Z,995.33
2019-06-20T04:10:51.703Z,995.34
2019-06-20T04:11:51.697Z,995.35
2019-06-20T04:12:51.689Z,995.34
2019-06-20T04:13:51.681Z,995.37
2019-06-20T04:14:51.672Z,995.32
2019-06-20T04:15:51.676Z,995.34
2019-06-20T04:16:51.658Z,995.36
2019-06-20T04:17:51.653Z,995.36
2019-06-20T04:18:51.642Z,995.41
2019-06-20T04:19:51.635Z,995.41
2019-06-20T04:20:51.627Z,995.44
2019-06-20T04:21:51.622Z,995.44
2019-06-20T04:22:51.611Z,995.40
2019-06-20T04:23:51.605Z,995.40
2019-06-20T04:24:51.598Z,995.38
2019-06-20T04:25:51.590Z,995.41
2019-06-20T04:26:51.581Z,995.40
2019-06-20T04:27:51.575Z,995.37
2019-06-20T04:28:51.567Z,995.40
2019-06-20T04:29:51.561Z,995.41
2019-06-20T04:30:51.553Z,995.45
2019-06-20T04:31:51.552Z,995.47
2019-06-20T04:32:51.544Z,995.44
2019-06-20T04:33:51.533Z,995.44
2019-06-20T04:34:51.522Z,995.48
2019-06-20T04:35:51.519Z,995.50
2019-06-20T04:36:51.508Z,995.54
2019-06-20T04:37:51.501Z,995.52
2019-06-20T04:38:51.496Z,995.52
2019-06-20T04:39:51.500Z,995.57
2019-06-20T04:40:51.478Z,995.59
2019-06-20T04:41:51.471Z,995.58
2019-06-20T04:42:51.463Z,995.54
2019-06-20T04:43:51.458Z,995.56
2019-06-20T04:44:51.451Z,995.60
2019-06-20T04:45:51.441Z,995.58
2019-06-20T04:46:51.432Z,995.58
2019-06-20T04:47:51.434Z,995.58
2019-06-20T04:48:51.419Z,995.61
2019-06-20T04:49:51.411Z,995.61
2019-06-20T04:50:51.403Z,995.61
2019-06-20T04:51:51.399Z,995.64
2019-06-20T04:52:51.390Z,995.63
2019-06-20T04:53:51.381Z,995.66
2019-06-20T04:54:51.375Z,995.63
2019-06-20T04:55:51.374Z,995.63
2019-06-20T04:56:51.361Z,995.67
2019-06-20T04:57:51.352Z,995.70
2019-06-20T04:58:51.345Z,995.73
2019-06-20T04:59:51.337Z,995.67
2019-06-20T05:00:51.330Z,995.72
2019-06-20T05:01:51.322Z,995.68
2019-06-20T05:02:51.315Z,995.74
2019-06-20T05:03:51.325Z,995.75
2019-06-20T05:04:51.302Z,995.79
2019-06-20T05:05:51.292Z,995.75
2019-06-20T05:06:51.285Z,995.77
2019-06-20T05:07:51.276Z,995.81
2019-06-20T05:08:51.270Z,995.78
2019-06-20T05:09:51.263Z,995.81
2019-06-20T05:10:51.254Z,995.82
2019-06-20T05:11:51.248Z,995.84
2019-06-20T05:12:51.245Z,995.84
2019-06-20T05:13:51.234Z,995.85
2019-06-20T05:14:51.230Z,995.88
2019-06-20T05:15:52.926Z,995.90
2019-06-20T05:16:51.210Z,995.89
2019-06-20T05:17:51.365Z,995.92
2019-06-20T05:18:51.198Z,995.95
2019-06-20T05:19:51.191Z,995.92
2019-06-20T05:20:51.181Z,996.00
2019-06-20T05:21:51.190Z,995.96
2019-06-20T05:22:51.166Z,995.92
2019-06-20T05:23:51.159Z,995.93
2019-06-20T05:24:51.152Z,995.95
2019-06-20T05:25:51.146Z,995.97
2019-06-20T05:26:51.147Z,996.03
2019-06-20T05:27:51.130Z,995.97
2019-06-20T05:28:51.125Z,995.98
2019-06-20T05:29:51.116Z,995.99
2019-06-20T05:30:51.109Z,995.98
2019-06-20T05:31:51.102Z,995.98
2019-06-20T05:32:51.096Z,995.95
2019-06-20T05:33:51.088Z,995.99
2019-06-20T05:34:51.082Z,996.00
2019-06-20T05:35:51.074Z,996.04
2019-06-20T05:36:51.069Z,996.04
2019-06-20T05:37:51.059Z,996.09
2019-06-20T05:38:51.052Z,996.11
2019-06-20T05:39:51.048Z,996.12
2019-06-20T05:40:51.042Z,996.11
2019-06-20T05:41:51.031Z,996.07
2019-06-20T05:42:51.023Z,996.12
2019-06-20T05:43:51.016Z,996.11
2019-06-20T05:44:51.009Z,996.11
2019-06-20T05:45:51.002Z,996.11
2019-06-20T05:46:50.995Z,996.04
2019-06-20T05:47:50.987Z,996.03
2019-06-20T05:48:50.986Z,996.00
2019-06-20T05:49:50.974Z,995.99
2019-06-20T05:50:50.965Z,995.99
2019-06-20T05:51:51.011Z,996.06
2019-06-20T05:52:50.953Z,996.03
2019-06-20T05:53:50.946Z,996.01
2019-06-20T05:54:50.938Z,996.02
2019-06-20T05:55:50.930Z,996.02
2019-06-20T05:56:50.944Z,996.00
2019-06-20T05:57:50.917Z,996.00
2019-06-20T05:58:50.909Z,996.01
2019-06-20T05:59:50.905Z,996.01
2019-06-20T06:00:50.897Z,996.03
2019-06-20T06:01:50.890Z,996.01
2019-06-20T06:02:50.887Z,996.06
2019-06-20T06:03:51.324Z,996.04
2019-06-20T06:04:50.872Z,996.05
2019-06-20T06:05:50.863Z,996.10
2019-06-20T06:06:50.934Z,996.08
2019-06-20T06:07:50.849Z,996.06
2019-06-20T06:08:51.893Z,996.05
2019-06-20T06:09:50.837Z,996.12
2019-06-20T06:10:50.833Z,996.06
2019-06-20T06:11:51.951Z,996.06
2019-06-20T06:12:50.817Z,996.12
2019-06-20T06:13:50.810Z,996.07
2019-06-20T06:14:50.802Z,996.08
2019-06-20T06:15:50.798Z,996.10
2019-06-20T06:16:50.789Z,996.06
2019-06-20T06:17:50.798Z,996.09
2019-06-20T06:18:50.777Z,996.04
2019-06-20T06:19:50.834Z,996.12
2019-06-20T06:20:50.766Z,996.08
2019-06-20T06:21:50.759Z,996.13
2019-06-20T06:22:50.750Z,996.08
2019-06-20T06:23:50.759Z,996.08
2019-06-20T06:24:50.759Z,996.08
2019-06-20T06:25:50.740Z,996.05
2019-06-20T06:26:50.727Z,996.08
2019-06-20T06:27:50.720Z,996.10
2019-06-20T06:28:50.715Z,996.04
2019-06-20T06:29:50.713Z,996.07
2019-06-20T06:30:50.706Z,996.09
2019-06-20T06:31:50.697Z,996.08
2019-06-20T06:32:50.695Z,996.13
2019-06-20T06:33:50.685Z,996.12
2019-06-20T06:34:50.680Z,996.12
2019-06-20T06:35:50.673Z,996.09
2019-06-20T06:36:50.668Z,996.15
2019-06-20T06:37:50.685Z,996.16
2019-06-20T06:38:50.655Z,996.16
2019-06-20T06:39:50.650Z,996.21
2019-06-20T06:40:50.644Z,996.20
2019-06-20T06:41:50.639Z,996.20
2019-06-20T06:42:50.634Z,996.25
2019-06-20T06:43:50.628Z,996.25
2019-06-20T06:44:50.623Z,996.32
2019-06-20T06:45:50.618Z,996.28
2019-06-20T06:46:55.463Z,996.27
2019-06-20T06:47:50.608Z,996.27
2019-06-20T06:48:50.603Z,996.29
2019-06-20T06:49:50.598Z,996.33
2019-06-20T06:50:50.589Z,996.38
2019-06-20T06:51:50.586Z,996.33
2019-06-20T06:52:50.581Z,996.32
2019-06-20T06:53:50.576Z,996.34
2019-06-20T06:54:50.568Z,996.34
2019-06-20T06:55:50.563Z,996.31
2019-06-20T06:56:50.558Z,996.28
2019-06-20T06:57:50.662Z,996.30
2019-06-20T06:58:50.547Z,996.27
2019-06-20T06:59:50.542Z,996.27
2019-06-20T07:00:50.537Z,996.26
2019-06-20T07:01:50.537Z,996.23
2019-06-20T07:02:50.529Z,996.22
2019-06-20T07:03:50.525Z,996.24
2019-06-20T07:04:50.519Z,996.26
2019-06-20T07:05:50.513Z,996.30
2019-06-20T07:06:50.507Z,996.32
2019-06-20T07:07:50.509Z,996.33
2019-06-20T07:08:50.499Z,996.38
2019-06-20T07:09:50.494Z,996.36
2019-06-20T07:10:50.491Z,996.37
2019-06-20T07:11:50.484Z,996.37
2019-06-20T07:12:50.479Z,996.43
2019-06-20T07:13:50.475Z,996.38
2019-06-20T07:14:50.471Z,996.36
2019-06-20T07:15:50.469Z,996.34
2019-06-20T07:16:59.688Z,996.37
2019-06-20T07:17:50.455Z,996.38
2019-06-20T07:18:50.463Z,996.39
2019-06-20T07:19:50.449Z,996.38
2019-06-20T07:20:50.444Z,996.33
2019-06-20T07:21:50.440Z,996.33
2019-06-20T07:22:50.438Z,996.34
2019-06-20T07:23:50.431Z,996.38
2019-06-20T07:24:50.429Z,996.43
2019-06-20T07:25:50.424Z,996.43
2019-06-20T07:26:50.421Z,996.43
2019-06-20T07:27:50.420Z,996.46
2019-06-20T07:28:51.615Z,996.44
2019-06-20T07:29:50.414Z,996.46
2019-06-20T07:30:50.409Z,996.44
2019-06-20T07:31:50.417Z,996.43
2019-06-20T07:32:50.406Z,996.49
2019-06-20T07:33:50.403Z,996.49
2019-06-20T07:34:50.401Z,996.48
2019-06-20T07:35:50.396Z,996.52
2019-06-20T07:36:50.394Z,996.56
2019-06-20T07:37:50.399Z,996.57
2019-06-20T07:38:50.419Z,996.52
2019-06-20T07:39:50.387Z,996.53
2019-06-20T07:40:50.402Z,996.52
2019-06-20T07:41:50.389Z,996.51
2019-06-20T07:42:50.382Z,996.50
2019-06-20T07:43:50.417Z,996.55
2019-06-20T07:44:50.383Z,996.48
2019-06-20T07:46:02.183Z,996.50
2019-06-20T07:46:50.371Z,996.44
2019-06-20T07:47:50.379Z,996.46
2019-06-20T07:48:50.386Z,996.48
2019-06-20T07:49:50.369Z,996.48
2019-06-20T07:50:50.363Z,996.52
2019-06-20T07:51:50.370Z,996.50
2019-06-20T07:53:01.357Z,996.54
2019-06-20T07:53:50.382Z,996.59
2019-06-20T07:54:50.358Z,996.57
2019-06-20T07:55:50.358Z,996.61
2019-06-20T07:56:50.356Z,996.57
2019-06-20T07:57:50.357Z,996.59
2019-06-20T07:58:50.351Z,996.56
2019-06-20T07:59:50.349Z,996.60
2019-06-20T08:00:50.348Z,996.58
2019-06-20T08:01:50.346Z,996.54
2019-06-20T08:02:50.343Z,996.54
2019-06-20T08:03:50.349Z,996.60
2019-06-20T08:04:50.339Z,996.60
2019-06-20T08:05:50.339Z,996.56
2019-06-20T08:06:50.333Z,996.57
2019-06-20T08:07:50.335Z,996.61
2019-06-20T08:08:50.330Z,996.62
2019-06-20T08:09:50.325Z,996.62
2019-06-20T08:10:50.322Z,996.66
2019-06-20T08:11:50.320Z,996.61
2019-06-20T08:12:50.316Z,996.60
2019-06-20T08:13:50.315Z,996.58
2019-06-20T08:14:50.315Z,996.62
2019-06-20T08:15:50.315Z,996.61
2019-06-20T08:16:50.315Z,996.61
2019-06-20T08:17:50.312Z,996.63
2019-06-20T08:18:50.311Z,996.59
2019-06-20T08:19:50.328Z,996.60
2019-06-20T08:20:50.315Z,996.58
2019-06-20T08:21:50.311Z,996.63
2019-06-20T08:22:50.316Z,996.64
2019-06-20T08:23:50.311Z,996.63
2019-06-20T08:24:50.314Z,996.65
2019-06-20T08:25:50.311Z,996.70
2019-06-20T08:26:50.334Z,996.69
2019-06-20T08:27:50.311Z,996.68
2019-06-20T08:29:07.104Z,996.67
2019-06-20T08:29:50.311Z,996.67
2019-06-20T08:30:50.312Z,996.66
2019-06-20T08:31:50.315Z,996.67
2019-06-20T08:32:50.315Z,996.75
2019-06-20T08:33:50.317Z,996.70
2019-06-20T08:34:50.329Z,996.73
2019-06-20T08:35:50.323Z,996.76
2019-06-20T08:36:50.327Z,996.71
2019-06-20T08:37:50.331Z,996.71
2019-06-20T08:38:50.335Z,996.75
2019-06-20T08:39:50.342Z,996.77
2019-06-20T08:40:50.346Z,996.76
2019-06-20T08:41:50.360Z,996.73
2019-06-20T08:42:50.357Z,996.74
2019-06-20T08:43:50.362Z,996.74
2019-06-20T08:44:50.368Z,996.71
2019-06-20T08:45:50.375Z,996.72
2019-06-20T08:46:50.378Z,996.75
2019-06-20T08:47:50.383Z,996.75
2019-06-20T08:48:50.389Z,996.75
2019-06-20T08:49:50.394Z,996.71
2019-06-20T08:50:50.401Z,996.74
2019-06-20T08:51:50.407Z,996.79
2019-06-20T08:52:50.410Z,996.82
2019-06-20T08:53:50.420Z,996.78
2019-06-20T08:54:50.421Z,996.88
2019-06-20T08:55:50.447Z,996.85
2019-06-20T08:56:50.436Z,996.84
2019-06-20T08:57:50.448Z,996.79
2019-06-20T08:58:50.449Z,996.82
2019-06-20T08:59:50.457Z,996.79
2019-06-20T09:00:50.462Z,996.78
2019-06-20T09:01:50.467Z,996.77
2019-06-20T09:02:50.472Z,996.78
2019-06-20T09:03:50.523Z,996.77
2019-06-20T09:04:50.484Z,996.79
2019-06-20T09:05:50.488Z,996.77
2019-06-20T09:06:50.497Z,996.81
2019-06-20T09:07:50.504Z,996.81
2019-06-20T09:08:50.501Z,996.84
2019-06-20T09:09:50.500Z,996.79
2019-06-20T09:10:50.502Z,996.80
2019-06-20T09:11:50.505Z,996.79
2019-06-20T09:12:50.518Z,996.80
2019-06-20T09:13:50.510Z,996.79
2019-06-20T09:14:50.511Z,996.77
2019-06-20T09:15:50.513Z,996.78
2019-06-20T09:16:50.513Z,996.82
2019-06-20T09:17:50.546Z,996.81
2019-06-20T09:18:53.211Z,996.79
2019-06-20T09:19:51.661Z,996.76
2019-06-20T09:20:52.744Z,996.77
2019-06-20T09:21:52.594Z,996.77
2019-06-20T09:22:50.517Z,996.76
2019-06-20T09:23:52.387Z,996.70
2019-06-20T09:24:50.517Z,996.74
2019-06-20T09:25:50.928Z,996.69
2019-06-20T09:26:51.195Z,996.74
2019-06-20T09:27:52.686Z,996.67
2019-06-20T09:28:51.040Z,996.74
2019-06-20T09:29:51.578Z,996.72
2019-06-20T09:30:51.889Z,996.77
2019-06-20T09:31:52.480Z,996.75
2019-06-20T09:32:52.219Z,996.80
2019-06-20T09:33:52.124Z,996.76
2019-06-20T09:34:51.823Z,996.79
2019-06-20T09:35:52.147Z,996.77
2019-06-20T09:36:52.024Z,996.77
2019-06-20T09:37:50.865Z,996.75
2019-06-20T09:38:50.650Z,996.78
2019-06-20T09:39:51.743Z,996.82
2019-06-20T09:40:51.894Z,996.86
2019-06-20T09:41:51.635Z,996.86
2019-06-20T09:42:51.691Z,996.87
2019-06-20T09:43:51.551Z,996.86
2019-06-20T09:44:52.349Z,996.84
2019-06-20T09:45:51.354Z,996.84
2019-06-20T09:46:51.158Z,996.82
2019-06-20T09:47:52.042Z,996.84
2019-06-20T09:48:51.088Z,996.85
2019-06-20T09:49:53.474Z,996.92
2019-06-20T09:50:51.637Z,996.90
2019-06-20T09:51:50.515Z,996.95
2019-06-20T09:52:51.596Z,996.95
2019-06-20T09:53:51.794Z,996.96
2019-06-20T09:54:51.641Z,996.97
2019-06-20T09:55:51.651Z,996.95
2019-06-20T09:56:53.507Z,996.97
2019-06-20T09:57:51.901Z,996.93
2019-06-20T09:58:51.145Z,996.97
2019-06-20T10:00:02.718Z,996.93
2019-06-20T10:00:50.859Z,996.98
2019-06-20T10:01:51.455Z,996.95
2019-06-20T10:02:52.115Z,996.97
2019-06-20T10:03:50.601Z,996.95
2019-06-20T10:04:50.709Z,996.99
2019-06-20T10:05:50.734Z,996.96
2019-06-20T10:06:50.463Z,996.94
2019-06-20T10:07:50.558Z,996.96
2019-06-20T10:08:50.457Z,996.92
2019-06-20T10:09:50.452Z,996.95
2019-06-20T10:10:51.052Z,996.95
2019-06-20T10:11:51.840Z,996.94
2019-06-20T10:12:51.667Z,996.94
2019-06-20T10:13:50.440Z,996.95
2019-06-20T10:14:51.510Z,996.99
2019-06-20T10:15:51.501Z,996.96
2019-06-20T10:16:52.218Z,996.94
2019-06-20T10:17:50.414Z,996.98
2019-06-20T10:18:50.410Z,997.01
2019-06-20T10:19:50.422Z,996.96
2019-06-20T10:20:51.128Z,996.96
2019-06-20T10:21:51.848Z,997.00
2019-06-20T10:22:50.978Z,997.01
2019-06-20T10:23:51.853Z,997.03
2019-06-20T10:24:51.302Z,996.99
2019-06-20T10:25:51.520Z,997.01
2019-06-20T10:26:51.530Z,996.99
2019-06-20T10:27:51.380Z,997.02
2019-06-20T10:28:51.433Z,997.05
2019-06-20T10:29:51.075Z,997.08
2019-06-20T10:30:51.086Z,997.03
2019-06-20T10:31:50.834Z,997.05
2019-06-20T10:32:51.016Z,997.04
2019-06-20T10:33:50.910Z,997.09
2019-06-20T10:34:50.642Z,997.06
2019-06-20T10:35:50.421Z,997.09
2019-06-20T10:36:50.329Z,997.13
2019-06-20T10:37:50.482Z,997.15
2019-06-20T10:38:50.445Z,997.14
2019-06-20T10:39:50.317Z,997.09
2019-06-20T10:40:50.315Z,997.18
2019-06-20T10:41:50.402Z,997.11
2019-06-20T10:42:50.368Z,997.10
2019-06-20T10:43:51.654Z,997.14
2019-06-20T10:44:50.321Z,997.12
2019-06-20T10:45:50.299Z,997.09
2019-06-20T10:46:51.437Z,997.10
2019-06-20T10:47:50.922Z,997.08
2019-06-20T10:48:50.287Z,997.14
2019-06-20T10:49:50.442Z,997.13
2019-06-20T10:50:50.279Z,997.10
2019-06-20T10:51:50.279Z,997.10
2019-06-20T10:52:51.724Z,997.15
2019-06-20T10:53:51.419Z,997.17
2019-06-20T10:54:51.416Z,997.18
2019-06-20T10:55:51.169Z,997.17
2019-06-20T10:56:51.036Z,997.20
2019-06-20T10:57:51.728Z,997.21
2019-06-20T10:58:50.709Z,997.22
2019-06-20T10:59:50.911Z,997.23
2019-06-20T11:00:50.473Z,997.20
2019-06-20T11:01:50.718Z,997.19
2019-06-20T11:02:51.266Z,997.23
2019-06-20T11:03:50.227Z,997.23
2019-06-20T11:04:50.223Z,997.21
2019-06-20T11:05:50.219Z,997.26
2019-06-20T11:06:50.224Z,997.28
2019-06-20T11:07:50.229Z,997.31
2019-06-20T11:08:50.203Z,997.32
2019-06-20T11:09:50.198Z,997.35
2019-06-20T11:10:50.199Z,997.30
2019-06-20T11:11:50.187Z,997.31
2019-06-20T11:12:55.663Z,997.32
2019-06-20T11:13:50.182Z,997.32
2019-06-20T11:14:50.200Z,997.28
2019-06-20T11:15:50.219Z,997.32
2019-06-20T11:16:50.162Z,997.33
2019-06-20T11:17:50.157Z,997.32
2019-06-20T11:18:50.163Z,997.32
2019-06-20T11:19:50.148Z,997.34
2019-06-20T11:20:50.146Z,997.33
2019-06-20T11:21:50.138Z,997.30
2019-06-20T11:22:50.135Z,997.30
2019-06-20T11:23:50.128Z,997.31
2019-06-20T11:24:50.123Z,997.33
2019-06-20T11:25:50.137Z,997.27
2019-06-20T11:26:50.115Z,997.31
2019-06-20T11:27:50.120Z,997.23
2019-06-20T11:28:50.107Z,997.28
2019-06-20T11:29:50.100Z,997.27
2019-06-20T11:30:58.092Z,997.28
2019-06-20T11:31:50.091Z,997.31
2019-06-20T11:32:50.087Z,997.32
2019-06-20T11:33:50.087Z,997.34
2019-06-20T11:34:50.083Z,997.32
2019-06-20T11:35:50.074Z,997.31
2019-06-20T11:36:50.085Z,997.32
2019-06-20T11:37:50.069Z,997.35
2019-06-20T11:38:50.063Z,997.37
2019-06-20T11:39:51.348Z,997.39
2019-06-20T11:40:50.058Z,997.38
2019-06-20T11:41:50.056Z,997.35
2019-06-20T11:42:50.051Z,997.39
2019-06-20T11:43:50.048Z,997.39
2019-06-20T11:44:50.046Z,997.43
2019-06-20T11:45:50.045Z,997.41
2019-06-20T11:46:50.040Z,997.44
2019-06-20T11:47:50.040Z,997.40
2019-06-20T11:48:50.034Z,997.40
2019-06-20T11:49:50.037Z,997.37
2019-06-20T11:50:50.051Z,997.41
2019-06-20T11:51:50.023Z,997.40
2019-06-20T11:52:50.026Z,997.40
2019-06-20T11:53:50.016Z,997.38
2019-06-20T11:54:50.072Z,997.38
2019-06-20T11:55:50.016Z,997.41
2019-06-20T11:56:50.009Z,997.38
2019-06-20T11:57:50.010Z,997.44
2019-06-20T11:58:50.001Z,997.38
2019-06-20T11:59:49.994Z,997.42
2019-06-20T12:01:03.248Z,997.45
2019-06-20T12:01:51.231Z,997.43
2019-06-20T12:02:50.317Z,997.51
2019-06-20T12:03:49.977Z,997.44
2019-06-20T12:04:49.974Z,997.51
2019-06-20T12:05:49.969Z,997.51
2019-06-20T12:06:49.964Z,997.50
2019-06-20T12:07:50.238Z,997.48
2019-06-20T12:08:49.957Z,997.44
2019-06-20T12:09:51.122Z,997.43
2019-06-20T12:10:49.947Z,997.47
2019-06-20T12:11:49.944Z,997.46
2019-06-20T12:12:49.938Z,997.51
2019-06-20T12:13:49.935Z,997.49
2019-06-20T12:14:49.930Z,997.49
2019-06-20T12:15:49.935Z,997.47
2019-06-20T12:16:49.922Z,997.53
2019-06-20T12:17:49.956Z,997.50
2019-06-20T12:18:49.911Z,997.52
2019-06-20T12:19:49.924Z,997.53
2019-06-20T12:20:49.905Z,997.53
2019-06-20T12:21:49.904Z,997.49
2019-06-20T12:22:50.818Z,997.53
2019-06-20T12:23:49.888Z,997.50
2019-06-20T12:24:49.886Z,997.46
2019-06-20T12:25:49.880Z,997.50
2019-06-20T12:26:49.875Z,997.47
2019-06-20T12:27:49.981Z,997.50
2019-06-20T12:28:49.871Z,997.49